createdAt,value
2023-04-12T00:00:17.993Z,11.02
2023-04-12T00:02:45.216Z,13.23
2023-04-12T00:05:14.212Z,12.75
2023-04-12T00:07:43.006Z,10.85
2023-04-12T00:10:10.413Z,14.77
2023-04-12T00:12:37.333Z,11.10
2023-04-12T00:15:06.180Z,12.70
2023-04-12T00:17:34.373Z,12.35
2023-04-12T00:20:02.025Z,10.68
2023-04-12T00:22:30.017Z,12.25
2023-04-12T00:24:56.970Z,10.75
2023-04-12T00:27:24.013Z,13.48
2023-04-12T00:29:50.911Z,12.18
2023-04-12T00:32:17.826Z,12.93
2023-04-12T00:34:44.739Z,12.02
2023-04-12T00:37:11.739Z,10.50
2023-04-12T00:39:38.639Z,12.63
2023-04-12T00:42:06.452Z,13.93
2023-04-12T00:44:34.140Z,9.80
2023-04-12T00:47:02.003Z,11.43
2023-04-12T00:49:30.973Z,11.00
2023-04-12T00:52:04.525Z,10.15
2023-04-12T00:54:35.532Z,13.43
2023-04-12T00:57:02.942Z,11.90
2023-04-12T00:59:30.145Z,11.73
2023-04-12T01:01:58.175Z,13.70
2023-04-12T01:04:26.555Z,13.32
2023-04-12T01:07:31.468Z,13.30
2023-04-12T01:10:08.496Z,13.02
2023-04-12T01:12:47.165Z,12.52
2023-04-12T01:15:16.321Z,11.57
2023-04-12T01:18:07.509Z,13.88
2023-04-12T01:20:44.773Z,16.20
2023-04-12T01:23:58.014Z,11.88
2023-04-12T01:26:42.100Z,12.65
2023-04-12T01:29:15.452Z,14.50
2023-04-12T01:31:54.460Z,14.50
2023-04-12T01:34:25.429Z,14.10
2023-04-12T01:36:53.458Z,14.85
2023-04-12T01:39:20.998Z,14.82
2023-04-12T01:41:49.198Z,14.30
2023-04-12T01:44:17.175Z,12.65
2023-04-12T01:46:48.670Z,13.25
2023-04-12T01:49:20.657Z,12.52
2023-04-12T01:52:02.111Z,16.55
2023-04-12T01:54:33.351Z,15.43
2023-04-12T01:57:03.822Z,13.52
2023-04-12T01:59:40.969Z,13.38
2023-04-12T02:02:12.183Z,13.00
2023-04-12T02:04:40.032Z,14.82
2023-04-12T02:07:07.054Z,15.40
2023-04-12T02:09:40.547Z,15.88
2023-04-12T02:12:09.919Z,11.60
2023-04-12T02:14:37.019Z,12.30
2023-04-12T02:17:04.671Z,13.30
2023-04-12T02:19:32.819Z,12.38
2023-04-12T02:21:59.957Z,14.13
2023-04-12T02:24:27.476Z,14.35
2023-04-12T02:26:55.293Z,11.25
2023-04-12T02:29:22.248Z,11.40
2023-04-12T02:31:49.329Z,11.93
2023-04-12T02:34:18.143Z,13.00
2023-04-12T02:36:50.801Z,14.60
2023-04-12T02:39:19.010Z,13.23
2023-04-12T02:41:46.159Z,12.05
2023-04-12T02:44:13.286Z,12.18
2023-04-12T02:46:40.221Z,11.88
2023-04-12T02:49:07.100Z,14.63
2023-04-12T02:51:34.157Z,13.80
2023-04-12T02:54:01.446Z,12.88
2023-04-12T02:56:30.108Z,12.93
2023-04-12T02:58:57.268Z,11.13
2023-04-12T03:01:24.212Z,14.77
2023-04-12T03:03:51.267Z,11.27
2023-04-12T03:06:18.314Z,12.20
2023-04-12T03:08:45.348Z,14.15
2023-04-12T03:11:12.231Z,13.30
2023-04-12T03:13:39.182Z,13.77
2023-04-12T03:16:25.962Z,15.88
2023-04-12T03:18:52.956Z,12.80
2023-04-12T03:21:19.906Z,13.90
2023-04-12T03:23:46.886Z,12.65
2023-04-12T03:26:13.840Z,16.13
2023-04-12T03:28:41.673Z,13.85
2023-04-12T03:31:09.055Z,13.95
2023-04-12T03:33:36.161Z,16.85
2023-04-12T03:36:03.204Z,12.82
2023-04-12T03:38:30.211Z,11.45
2023-04-12T03:40:57.167Z,13.45
2023-04-12T03:43:24.039Z,13.60
2023-04-12T03:45:52.731Z,14.82
2023-04-12T03:48:19.915Z,13.77
2023-04-12T03:50:48.509Z,13.05
2023-04-12T03:53:15.667Z,14.43
2023-04-12T03:55:43.440Z,10.88
2023-04-12T03:58:10.344Z,13.93
2023-04-12T04:00:37.462Z,12.82
2023-04-12T04:03:05.380Z,14.73
2023-04-12T04:05:32.666Z,15.80
2023-04-12T04:08:02.320Z,14.63
2023-04-12T04:10:29.583Z,14.48
2023-04-12T04:12:56.563Z,17.10
2023-04-12T04:15:25.202Z,13.90
2023-04-12T04:17:52.912Z,16.25
2023-04-12T04:20:20.505Z,14.35
2023-04-12T04:22:50.153Z,15.10
2023-04-12T04:25:17.097Z,15.25
2023-04-12T04:27:47.262Z,15.90
2023-04-12T04:30:15.550Z,13.73
2023-04-12T04:32:43.884Z,16.27
2023-04-12T04:35:10.904Z,14.35
2023-04-12T04:37:37.919Z,14.38
2023-04-12T04:40:08.739Z,13.45
2023-04-12T04:42:36.630Z,14.45
2023-04-12T04:45:04.984Z,14.38
2023-04-12T04:47:32.174Z,15.45
2023-04-12T04:50:00.221Z,14.65
2023-04-12T04:52:27.226Z,12.98
2023-04-12T04:54:57.674Z,14.35
2023-04-12T04:57:26.829Z,14.98
2023-04-12T04:59:53.745Z,12.55
2023-04-12T05:02:21.573Z,13.30
2023-04-12T05:04:48.670Z,12.27
2023-04-12T05:07:15.994Z,15.70
2023-04-12T05:09:42.947Z,13.15
2023-04-12T05:12:09.931Z,14.02
2023-04-12T05:14:47.337Z,13.38
2023-04-12T05:17:18.672Z,12.10
2023-04-12T05:19:45.650Z,13.07
2023-04-12T05:22:14.128Z,13.20
2023-04-12T05:24:41.201Z,10.80
2023-04-12T05:27:09.108Z,12.70
2023-04-12T05:29:36.051Z,13.57
2023-04-12T05:32:02.983Z,12.80
2023-04-12T05:34:30.530Z,9.35
2023-04-12T05:36:58.999Z,11.15
2023-04-12T05:39:27.378Z,11.50
2023-04-12T05:41:54.444Z,9.60
2023-04-12T05:44:21.606Z,9.35
2023-04-12T05:46:48.868Z,12.32
2023-04-12T05:49:16.505Z,11.73
2023-04-12T05:51:43.419Z,9.43
2023-04-12T05:54:10.982Z,10.55
2023-04-12T05:56:37.941Z,10.88
2023-04-12T05:59:05.438Z,8.80
2023-04-12T06:01:33.225Z,8.10
2023-04-12T06:04:02.538Z,7.53
2023-04-12T06:06:30.523Z,10.63
2023-04-12T06:09:00.794Z,8.20
2023-04-12T06:11:27.881Z,8.18
2023-04-12T06:13:55.597Z,7.47
2023-04-12T06:16:22.634Z,10.13
2023-04-12T06:18:49.642Z,10.30
2023-04-12T06:21:16.696Z,8.10
2023-04-12T06:23:43.622Z,8.93
2023-04-12T06:26:11.375Z,17.50
2023-04-12T06:28:38.459Z,8.30
2023-04-12T06:31:05.836Z,8.93
2023-04-12T06:33:32.957Z,9.63
2023-04-12T06:36:00.883Z,8.82
2023-04-12T06:38:27.959Z,8.25
2023-04-12T06:40:55.068Z,11.00
2023-04-12T06:43:22.891Z,9.05
2023-04-12T06:45:52.684Z,11.98
2023-04-12T06:48:19.694Z,19.30
2023-04-12T06:50:46.670Z,8.98
2023-04-12T06:53:13.789Z,11.38
2023-04-12T06:55:41.464Z,12.23
2023-04-12T06:58:08.408Z,8.93
2023-04-12T07:00:35.578Z,10.65
2023-04-12T07:03:02.708Z,11.25
2023-04-12T07:05:29.781Z,10.68
2023-04-12T07:07:56.807Z,10.20
2023-04-12T07:10:23.759Z,11.70
2023-04-12T07:12:52.074Z,13.10
2023-04-12T07:15:19.031Z,16.45
2023-04-12T07:17:46.019Z,14.68
2023-04-12T07:20:13.365Z,13.45
2023-04-12T07:22:40.559Z,13.45
2023-04-12T07:25:10.924Z,13.02
2023-04-12T07:27:37.847Z,12.82
2023-04-12T07:30:05.259Z,15.73
2023-04-12T07:32:32.322Z,14.02
2023-04-12T07:34:59.474Z,13.50
2023-04-12T07:37:26.710Z,14.02
2023-04-12T07:39:53.716Z,16.42
2023-04-12T07:42:20.715Z,14.32
2023-04-12T07:44:47.756Z,15.43
2023-04-12T07:47:14.805Z,15.75
2023-04-12T07:49:41.754Z,12.65
2023-04-12T07:52:08.851Z,13.55
2023-04-12T07:54:36.051Z,14.57
2023-04-12T07:57:06.229Z,12.38
2023-04-12T07:59:33.832Z,13.07
2023-04-12T08:02:01.281Z,12.15
2023-04-12T08:04:28.576Z,12.75
2023-04-12T08:06:56.154Z,22.88
2023-04-12T08:09:23.673Z,17.52
2023-04-12T08:11:50.926Z,22.55
2023-04-12T08:14:17.869Z,13.20
2023-04-12T08:16:44.851Z,13.68
2023-04-12T08:19:11.963Z,14.40
2023-04-12T08:21:39.411Z,14.45
2023-04-12T08:24:06.945Z,13.68
2023-04-12T08:26:33.929Z,12.88
2023-04-12T08:29:01.061Z,19.42
2023-04-12T08:31:29.011Z,15.38
2023-04-12T08:33:56.755Z,15.05
2023-04-12T08:36:23.980Z,15.82
2023-04-12T08:38:52.728Z,14.73
2023-04-12T08:41:20.445Z,17.02
2023-04-12T08:43:48.877Z,15.68
2023-04-12T08:46:16.612Z,17.92
2023-04-12T08:48:49.442Z,16.55
2023-04-12T08:51:19.019Z,17.17
2023-04-12T08:53:46.006Z,15.52
2023-04-12T08:56:13.931Z,12.98
2023-04-12T08:58:42.966Z,13.55
2023-04-12T09:01:16.402Z,18.00
2023-04-12T09:03:44.830Z,17.95
2023-04-12T09:06:15.803Z,22.02
2023-04-12T09:08:56.778Z,10.52
2023-04-12T09:11:26.428Z,12.38
2023-04-12T09:13:58.405Z,14.57
2023-04-12T09:16:35.120Z,14.82
2023-04-12T09:19:03.531Z,13.38
2023-04-12T09:21:34.837Z,12.25
2023-04-12T09:24:13.550Z,14.27
2023-04-12T09:26:41.734Z,15.07
2023-04-12T09:29:24.346Z,12.45
2023-04-12T09:31:58.255Z,11.00
2023-04-12T09:34:27.257Z,14.32
2023-04-12T09:36:54.882Z,14.00
2023-04-12T09:39:32.210Z,10.23
2023-04-12T09:42:25.621Z,13.40
2023-04-12T09:44:59.219Z,12.40
2023-04-12T09:47:40.279Z,12.15
2023-04-12T09:50:08.522Z,14.50
2023-04-12T09:52:39.389Z,13.05
2023-04-12T09:55:11.206Z,13.15
2023-04-12T09:57:43.163Z,13.35
2023-04-12T10:00:18.258Z,12.63
2023-04-12T10:02:48.710Z,13.55
2023-04-12T10:05:18.571Z,12.88
2023-04-12T10:07:47.003Z,12.50
2023-04-12T10:10:16.864Z,12.20
2023-04-12T10:12:48.218Z,12.45
2023-04-12T10:15:21.349Z,15.30
2023-04-12T10:17:57.895Z,16.08
2023-04-12T10:20:28.952Z,13.73
2023-04-12T10:22:57.102Z,15.10
2023-04-12T10:25:27.067Z,14.85
2023-04-12T10:27:54.162Z,12.35
2023-04-12T10:30:22.669Z,14.70
2023-04-12T10:33:09.854Z,14.73
2023-04-12T10:36:03.912Z,14.10
2023-04-12T10:38:35.854Z,11.90
2023-04-12T10:41:21.641Z,16.27
2023-04-12T10:43:52.529Z,12.60
2023-04-12T10:46:38.071Z,14.13
2023-04-12T10:49:15.830Z,14.10
2023-04-12T10:52:01.560Z,11.80
2023-04-12T10:54:35.483Z,11.23
2023-04-12T10:57:06.798Z,11.48
2023-04-12T10:59:54.696Z,11.93
2023-04-12T11:02:22.051Z,12.50
2023-04-12T11:05:10.032Z,11.32
2023-04-12T11:07:45.044Z,11.32
2023-04-12T11:10:15.391Z,13.85
2023-04-12T11:12:48.877Z,13.25
2023-04-12T11:15:16.245Z,14.83
2023-04-12T11:17:53.017Z,13.75
2023-04-12T11:20:20.452Z,13.13
2023-04-12T11:22:48.606Z,14.73
2023-04-12T11:25:20.356Z,15.30
2023-04-12T11:27:51.668Z,12.40
2023-04-12T11:30:20.009Z,15.43
2023-04-12T11:32:47.933Z,14.65
2023-04-12T11:35:16.921Z,12.15
2023-04-12T11:37:44.684Z,11.32
2023-04-12T11:40:11.956Z,13.13
2023-04-12T11:42:40.634Z,13.32
2023-04-12T11:45:15.937Z,12.88
2023-04-12T11:47:45.963Z,13.70
2023-04-12T11:50:13.212Z,12.70
2023-04-12T11:52:41.356Z,13.32
2023-04-12T11:55:11.418Z,13.27
2023-04-12T11:57:39.317Z,13.50
2023-04-12T12:00:07.265Z,13.85
2023-04-12T12:02:42.937Z,12.27
2023-04-12T12:05:16.904Z,12.10
2023-04-12T12:07:44.193Z,13.73
2023-04-12T12:10:13.292Z,16.80
2023-04-12T12:12:45.037Z,15.68
2023-04-12T12:15:14.835Z,16.02
2023-04-12T12:17:41.792Z,14.30
2023-04-12T12:20:20.609Z,13.93
2023-04-12T12:22:47.959Z,12.85
2023-04-12T12:25:14.956Z,17.10
2023-04-12T12:27:44.499Z,14.13
2023-04-12T12:30:12.509Z,12.75
2023-04-12T12:32:40.363Z,13.57
2023-04-12T12:35:12.190Z,13.95
2023-04-12T12:37:50.658Z,19.10
2023-04-12T12:40:17.701Z,13.70
2023-04-12T12:42:52.841Z,20.33
2023-04-12T12:45:22.041Z,13.57
2023-04-12T12:47:59.546Z,16.10
2023-04-12T12:50:29.503Z,16.52
2023-04-12T12:52:56.918Z,16.45
2023-04-12T12:55:25.096Z,44.80
2023-04-12T12:58:06.789Z,18.85
2023-04-12T13:00:35.457Z,17.95
2023-04-12T13:03:03.236Z,17.30
2023-04-12T13:05:30.531Z,20.40
2023-04-12T13:07:57.736Z,17.13
2023-04-12T13:10:26.627Z,17.55
2023-04-12T13:12:53.816Z,16.65
2023-04-12T13:15:23.686Z,15.98
2023-04-12T13:17:55.213Z,17.85
2023-04-12T13:20:23.131Z,18.95
2023-04-12T13:22:52.281Z,20.50
2023-04-12T13:25:22.923Z,19.95
2023-04-12T13:27:51.079Z,21.27
2023-04-12T13:30:20.018Z,18.52
2023-04-12T13:32:47.227Z,20.00
2023-04-12T13:35:14.373Z,16.90
2023-04-12T13:37:42.151Z,18.75
2023-04-12T13:40:09.565Z,18.58
2023-04-12T13:42:36.651Z,17.17
2023-04-12T13:45:04.620Z,17.33
2023-04-12T13:47:33.941Z,18.60
2023-04-12T13:50:02.023Z,17.27
2023-04-12T13:52:29.273Z,17.95
2023-04-12T13:54:57.742Z,17.40
2023-04-12T13:57:24.651Z,17.92
2023-04-12T13:59:51.661Z,15.88
2023-04-12T14:02:18.635Z,18.10
2023-04-12T14:04:53.326Z,16.00
2023-04-12T14:07:20.761Z,16.20
2023-04-12T14:09:48.818Z,18.63
2023-04-12T14:12:16.283Z,18.63
2023-04-12T14:14:43.251Z,16.08
2023-04-12T14:17:10.434Z,17.13
2023-04-12T14:19:37.455Z,15.93
2023-04-12T14:22:04.550Z,14.55
2023-04-12T14:24:31.922Z,15.27
2023-04-12T14:27:01.098Z,13.68
2023-04-12T14:29:28.273Z,15.60
2023-04-12T14:31:55.200Z,14.25
2023-04-12T14:34:22.143Z,13.35
2023-04-12T14:36:49.107Z,12.60
2023-04-12T14:39:16.379Z,14.25
2023-04-12T14:41:43.478Z,13.93
2023-04-12T14:44:10.642Z,13.25
2023-04-12T14:46:37.715Z,13.38
2023-04-12T14:49:04.728Z,14.70
2023-04-12T14:51:32.435Z,14.52
2023-04-12T14:53:59.626Z,14.45
2023-04-12T14:56:30.367Z,13.65
2023-04-12T14:58:58.389Z,10.65
2023-04-12T15:01:26.091Z,16.13
2023-04-12T15:03:53.874Z,12.95
2023-04-12T15:06:27.356Z,14.63
2023-04-12T15:08:55.369Z,13.98
2023-04-12T15:11:27.067Z,14.68
2023-04-12T15:13:55.436Z,16.95
2023-04-12T15:16:23.096Z,16.55
2023-04-12T15:18:51.717Z,17.75
2023-04-12T15:21:19.011Z,20.25
2023-04-12T15:23:46.221Z,15.32
2023-04-12T15:26:14.523Z,18.63
2023-04-12T15:28:42.554Z,16.98
2023-04-12T15:31:09.854Z,18.52
2023-04-12T15:33:37.318Z,17.88
2023-04-12T15:36:05.482Z,18.70
2023-04-12T15:38:32.760Z,17.77
2023-04-12T15:41:01.676Z,17.48
2023-04-12T15:43:29.362Z,18.75
2023-04-12T15:45:57.389Z,19.15
2023-04-12T15:48:25.727Z,28.10
2023-04-12T15:50:54.316Z,20.02
2023-04-12T15:53:23.247Z,18.92
2023-04-12T15:55:55.132Z,20.80
2023-04-12T15:58:30.302Z,21.48
2023-04-12T16:00:57.316Z,18.02
2023-04-12T16:03:26.235Z,19.25
2023-04-12T16:05:54.237Z,20.30
2023-04-12T16:08:22.501Z,22.60
2023-04-12T16:10:50.784Z,19.48
2023-04-12T16:13:18.828Z,20.08
2023-04-12T16:15:47.077Z,21.02
2023-04-12T16:18:14.180Z,22.10
2023-04-12T16:20:41.276Z,20.40
2023-04-12T16:23:08.513Z,21.98
2023-04-12T16:25:36.151Z,20.40
2023-04-12T16:28:03.546Z,17.20
2023-04-12T16:30:32.232Z,20.35
2023-04-12T16:32:59.463Z,23.45
2023-04-12T16:35:26.638Z,20.33
2023-04-12T16:37:54.397Z,19.00
2023-04-12T16:40:22.393Z,17.98
2023-04-12T16:42:49.429Z,18.33
2023-04-12T16:45:16.639Z,19.90
2023-04-12T16:47:46.957Z,18.50
2023-04-12T16:50:14.329Z,20.42
2023-04-12T16:52:41.950Z,23.65
2023-04-12T16:55:11.886Z,22.23
2023-04-12T16:57:40.648Z,23.60
2023-04-12T17:00:23.037Z,20.90
2023-04-12T17:02:52.213Z,20.67
2023-04-12T17:05:21.130Z,21.77
2023-04-12T17:07:50.001Z,22.52
2023-04-12T17:10:18.297Z,20.65
2023-04-12T17:12:46.573Z,23.08
2023-04-12T17:15:16.419Z,24.88
2023-04-12T17:18:12.915Z,23.80
2023-04-12T17:20:39.948Z,21.38
2023-04-12T17:23:07.442Z,22.58
2023-04-12T17:25:35.148Z,27.13
2023-04-12T17:28:03.091Z,32.90
2023-04-12T17:30:31.061Z,29.88
2023-04-12T17:33:01.286Z,31.42
2023-04-12T17:35:28.779Z,27.60
2023-04-12T17:37:56.487Z,38.50
2023-04-12T17:40:23.464Z,28.40
2023-04-12T17:42:50.667Z,29.48
2023-04-12T17:45:21.984Z,30.42
2023-04-12T17:47:49.458Z,26.52
2023-04-12T17:50:16.905Z,25.20
2023-04-12T17:52:44.883Z,26.58
2023-04-12T17:55:13.048Z,28.13
2023-04-12T17:57:40.152Z,31.00
2023-04-12T18:00:12.014Z,29.08
2023-04-12T18:02:39.633Z,25.33
2023-04-12T18:05:07.765Z,27.58
2023-04-12T18:07:34.899Z,27.10
2023-04-12T18:10:03.273Z,25.80
2023-04-12T18:12:30.388Z,22.67
2023-04-12T18:14:57.525Z,27.35
2023-04-12T18:17:26.569Z,33.30
2023-04-12T18:19:54.577Z,31.23
2023-04-12T18:22:21.798Z,32.10
2023-04-12T18:24:48.746Z,28.48
2023-04-12T18:27:16.923Z,32.83
2023-04-12T18:29:44.863Z,33.10
2023-04-12T18:32:12.294Z,31.48
2023-04-12T18:34:39.251Z,32.38
2023-04-12T18:37:06.811Z,32.80
2023-04-12T18:39:35.698Z,35.22
2023-04-12T18:42:03.033Z,35.53
2023-04-12T18:44:31.133Z,33.75
2023-04-12T18:46:58.215Z,39.10
2023-04-12T18:49:26.046Z,34.70
2023-04-12T18:51:53.755Z,36.05
2023-04-12T18:54:21.277Z,36.08
2023-04-12T18:56:48.260Z,30.58
2023-04-12T18:59:17.822Z,39.30
2023-04-12T19:01:46.033Z,39.92
2023-04-12T19:04:16.527Z,41.25
2023-04-12T19:06:44.765Z,41.95
2023-04-12T19:09:11.846Z,44.35
2023-04-12T19:11:38.804Z,42.10
2023-04-12T19:14:07.025Z,45.10
2023-04-12T19:16:34.797Z,43.40
2023-04-12T19:19:01.945Z,43.13
2023-04-12T19:25:10.678Z,33.08
2023-04-12T19:27:39.147Z,33.53
2023-04-12T19:30:07.343Z,36.38
2023-04-12T19:32:34.316Z,27.55
2023-04-12T19:35:01.536Z,30.13
2023-04-12T19:37:34.107Z,28.23
2023-04-12T19:40:01.291Z,26.50
2023-04-12T19:42:28.294Z,27.23
2023-04-12T19:44:55.521Z,24.85
2023-04-12T19:47:24.486Z,24.50
2023-04-12T19:49:51.471Z,26.20
2023-04-12T19:52:21.382Z,24.20
2023-04-12T19:54:48.352Z,20.42
2023-04-12T19:57:15.417Z,21.75
2023-04-12T19:59:42.886Z,21.33
2023-04-12T20:02:10.038Z,21.45
2023-04-12T20:04:37.089Z,25.73
2023-04-12T20:07:04.888Z,24.50
2023-04-12T20:09:32.501Z,17.60
2023-04-12T20:11:59.467Z,20.23
2023-04-12T20:18:13.641Z,19.52
2023-04-12T20:20:44.224Z,18.38
2023-04-12T20:23:12.599Z,20.40
2023-04-12T20:25:42.003Z,20.20
2023-04-12T20:28:09.473Z,17.70
2023-04-12T20:30:37.010Z,18.20
2023-04-12T20:33:04.325Z,19.55
2023-04-12T20:35:31.547Z,20.90
2023-04-12T20:37:58.605Z,19.45
2023-04-12T20:40:30.089Z,19.45
2023-04-12T20:42:57.394Z,16.90
2023-04-12T20:45:24.539Z,18.45
2023-04-12T20:47:51.888Z,20.38
2023-04-12T20:50:22.616Z,18.77
2023-04-12T20:52:52.119Z,18.10
2023-04-12T20:55:19.535Z,17.25
2023-04-12T20:57:46.515Z,22.80
2023-04-12T21:00:23.773Z,27.55
2023-04-12T21:02:51.194Z,17.90
2023-04-12T21:05:18.329Z,20.02
2023-04-12T21:07:47.101Z,17.33
2023-04-12T21:10:14.998Z,19.80
2023-04-12T21:12:45.268Z,21.33
2023-04-12T21:15:12.854Z,18.23
2023-04-12T21:17:40.853Z,17.23
2023-04-12T21:20:11.594Z,17.20
2023-04-12T21:22:38.686Z,16.75
2023-04-12T21:25:07.529Z,16.55
2023-04-12T21:27:35.344Z,22.42
2023-04-12T21:30:03.138Z,16.75
2023-04-12T21:32:30.254Z,13.32
2023-04-12T21:34:58.598Z,20.77
2023-04-12T21:37:26.235Z,15.55
2023-04-12T21:39:53.833Z,17.27
2023-04-12T21:42:21.061Z,17.95
2023-04-12T21:44:47.999Z,17.42
2023-04-12T21:47:14.944Z,18.55
2023-04-12T21:49:41.838Z,14.98
2023-04-12T21:52:08.835Z,19.95
2023-04-12T21:54:37.064Z,15.77
2023-04-12T21:57:04.318Z,16.45
2023-04-12T21:59:31.224Z,20.45
2023-04-12T22:01:58.243Z,22.35
2023-04-12T22:04:25.176Z,18.33
2023-04-12T22:06:53.020Z,16.88
2023-04-12T22:09:20.391Z,19.73
2023-04-12T22:11:49.189Z,15.73
2023-04-12T22:14:16.166Z,18.90
2023-04-12T22:16:43.135Z,18.58
2023-04-12T22:19:10.116Z,18.23
2023-04-12T22:21:37.408Z,20.20
2023-04-12T22:24:04.513Z,19.13
2023-04-12T22:26:31.675Z,20.52
2023-04-12T22:28:58.799Z,19.48
2023-04-12T22:31:26.253Z,22.60
2023-04-12T22:33:55.116Z,23.30
2023-04-12T22:36:27.769Z,19.05
2023-04-12T22:38:56.330Z,26.60
2023-04-12T22:41:23.205Z,23.13
2023-04-12T22:43:50.205Z,23.35
2023-04-12T22:46:18.795Z,19.55
2023-04-12T22:48:48.584Z,20.73
2023-04-12T22:51:16.019Z,23.45
2023-04-12T22:53:43.691Z,22.33
2023-04-12T22:56:11.405Z,23.33
2023-04-12T22:58:40.443Z,30.42
2023-04-12T23:01:07.808Z,24.95
2023-04-12T23:03:35.111Z,20.25
2023-04-12T23:06:02.209Z,16.60
2023-04-12T23:08:29.362Z,19.92
2023-04-12T23:11:02.953Z,20.23
2023-04-12T23:13:33.923Z,22.52
2023-04-12T23:16:05.742Z,22.50
2023-04-12T23:18:32.946Z,22.95
2023-04-12T23:21:01.719Z,25.90
2023-04-12T23:23:28.874Z,22.73
2023-04-12T23:25:55.771Z,25.13
2023-04-12T23:28:26.030Z,27.75
2023-04-12T23:30:52.984Z,25.67
2023-04-12T23:33:22.064Z,24.35
2023-04-12T23:35:52.875Z,25.98
2023-04-12T23:38:24.649Z,26.48
2023-04-12T23:40:54.019Z,23.35
2023-04-12T23:43:22.628Z,25.20
2023-04-12T23:45:49.718Z,31.45
2023-04-12T23:48:16.813Z,24.08
2023-04-12T23:50:48.279Z,26.67
2023-04-12T23:53:16.264Z,25.63
2023-04-12T23:55:46.376Z,23.17
2023-04-12T23:58:13.442Z,28.00
